createdAt,value
2018-03-28T00:01:45.965Z,2.7
2018-03-28T00:04:45.914Z,2.6
2018-03-28T00:07:45.881Z,2.7
2018-03-28T00:10:46.061Z,2.6
2018-03-28T00:13:45.892Z,2.5
2018-03-28T00:16:45.878Z,2.6
2018-03-28T00:19:45.916Z,2.4
2018-03-28T00:22:45.879Z,2.5
2018-03-28T00:25:45.882Z,2.6
2018-03-28T00:28:45.901Z,2.5
2018-03-28T00:31:45.908Z,2.6
2018-03-28T00:34:45.960Z,2.6
2018-03-28T00:37:45.894Z,2.7
2018-03-28T00:40:45.901Z,2.8
2018-03-28T00:43:45.898Z,2.5
2018-03-28T00:46:45.923Z,2.5
2018-03-28T00:49:45.871Z,2.4
2018-03-28T00:52:45.889Z,2.4
2018-03-28T00:55:45.882Z,2.4
2018-03-28T00:58:45.865Z,2.5
2018-03-28T01:01:45.863Z,2.5
2018-03-28T01:04:45.873Z,2.5
2018-03-28T01:07:45.903Z,2.6
2018-03-28T01:10:45.857Z,2.4
2018-03-28T01:13:45.926Z,2.5
2018-03-28T01:16:45.881Z,2.3
2018-03-28T01:19:45.867Z,2.4
2018-03-28T01:22:45.881Z,2.4
2018-03-28T01:25:45.862Z,2.4
2018-03-28T01:28:45.906Z,2.4
2018-03-28T01:31:45.858Z,2.3
2018-03-28T01:34:45.860Z,2.4
2018-03-28T01:37:45.857Z,2.3
2018-03-28T01:40:45.891Z,2.3
2018-03-28T01:43:45.838Z,2.4
2018-03-28T01:46:45.858Z,2.3
2018-03-28T01:49:45.863Z,2.3
2018-03-28T01:52:45.955Z,2.5
2018-03-28T01:55:45.925Z,2.3
2018-03-28T01:58:45.872Z,2.3
2018-03-28T02:01:45.849Z,2.3
2018-03-28T02:04:45.858Z,2.3
2018-03-28T02:07:45.859Z,2.3
2018-03-28T02:10:45.894Z,2.3
2018-03-28T02:13:45.870Z,2.3
2018-03-28T02:16:45.854Z,2.3
2018-03-28T02:19:45.863Z,2.3
2018-03-28T02:22:45.878Z,1.9
2018-03-28T02:25:45.877Z,2.4
2018-03-28T02:28:45.833Z,2.1
2018-03-28T02:31:45.874Z,2.3
2018-03-28T02:34:45.845Z,2.4
2018-03-28T02:37:45.913Z,2
2018-03-28T02:40:45.875Z,2
2018-03-28T02:43:45.888Z,2.1
2018-03-28T02:46:46.018Z,2.2
2018-03-28T02:49:45.919Z,2.2
2018-03-28T02:52:45.852Z,2
2018-03-28T02:55:45.934Z,1.9
2018-03-28T02:58:45.857Z,2.1
2018-03-28T03:01:46.018Z,2.1
2018-03-28T03:04:45.905Z,2.2
2018-03-28T03:07:45.869Z,1.9
2018-03-28T03:10:45.817Z,2.2
2018-03-28T03:13:46.244Z,2.2
2018-03-28T03:16:45.880Z,1.9
2018-03-28T03:19:45.838Z,2.2
2018-03-28T03:22:45.834Z,1.9
2018-03-28T03:25:45.818Z,2
2018-03-28T03:28:45.830Z,1.8
2018-03-28T03:31:45.863Z,1.9
2018-03-28T03:34:45.867Z,2.1
2018-03-28T03:37:45.843Z,2
2018-03-28T03:40:45.817Z,1.9
2018-03-28T03:43:45.881Z,1.8
2018-03-28T03:46:45.813Z,1.8
2018-03-28T03:49:45.841Z,1.8
2018-03-28T03:52:46.001Z,2
2018-03-28T03:55:45.823Z,1.9
2018-03-28T03:58:46.373Z,1.7
2018-03-28T04:01:45.842Z,1.8
2018-03-28T04:04:45.818Z,1.8
2018-03-28T04:07:45.794Z,2
2018-03-28T04:10:45.795Z,1.8
2018-03-28T04:13:45.802Z,1.8
2018-03-28T04:16:45.845Z,1.7
2018-03-28T04:19:45.795Z,1.7
2018-03-28T04:22:45.810Z,1.7
2018-03-28T04:25:45.801Z,1.8
2018-03-28T04:28:45.893Z,1.7
2018-03-28T04:31:45.837Z,1.6
2018-03-28T04:34:45.824Z,1.7
2018-03-28T04:37:45.865Z,1.7
2018-03-28T04:40:45.834Z,1.6
2018-03-28T04:43:46.465Z,1.7
2018-03-28T04:46:45.802Z,1.7
2018-03-28T04:49:45.849Z,1.6
2018-03-28T04:52:45.830Z,1.7
2018-03-28T04:55:46.450Z,1.7
2018-03-28T04:58:45.820Z,1.7
2018-03-28T05:01:45.799Z,1.5
2018-03-28T05:04:45.784Z,1.6
2018-03-28T05:07:45.801Z,1.5
2018-03-28T05:10:45.785Z,1.6
2018-03-28T05:13:45.820Z,1.5
2018-03-28T05:16:45.783Z,1.6
2018-03-28T05:19:45.785Z,1.5
2018-03-28T05:22:46.498Z,1.5
2018-03-28T05:25:45.809Z,1.6
2018-03-28T05:28:45.845Z,1.5
2018-03-28T05:31:45.801Z,1.6
2018-03-28T05:34:45.845Z,1.7
2018-03-28T05:37:45.801Z,1.6
2018-03-28T05:40:46.056Z,1.6
2018-03-28T05:43:45.776Z,1.6
2018-03-28T05:46:45.783Z,1.5
2018-03-28T05:49:46.070Z,1.5
2018-03-28T05:52:45.776Z,1.5
2018-03-28T05:55:45.770Z,1.5
2018-03-28T05:58:45.772Z,1.6
2018-03-28T06:01:45.796Z,1.6
2018-03-28T06:04:45.766Z,1.5
2018-03-28T06:07:45.751Z,1.6
2018-03-28T06:10:45.793Z,6.9
2018-03-28T06:13:45.801Z,2.4
2018-03-28T06:16:45.814Z,2.1
2018-03-28T06:19:45.766Z,2
2018-03-28T06:22:45.827Z,2.3
2018-03-28T06:25:45.781Z,2
2018-03-28T06:28:45.774Z,3.3
2018-03-28T06:31:45.798Z,1.5
2018-03-28T06:34:45.788Z,1.7
2018-03-28T06:37:45.764Z,1.6
2018-03-28T06:40:45.760Z,1.6
2018-03-28T06:43:45.765Z,1.8
2018-03-28T06:46:45.985Z,2.9
2018-03-28T06:49:45.758Z,1.7
2018-03-28T06:52:45.749Z,1.8
2018-03-28T06:55:45.744Z,1.5
2018-03-28T06:58:45.766Z,1.8
2018-03-28T07:01:45.766Z,2
2018-03-28T07:04:45.839Z,2.6
2018-03-28T07:07:45.761Z,4.3
2018-03-28T07:10:45.852Z,2.2
2018-03-28T07:13:45.737Z,2.3
2018-03-28T07:16:45.754Z,1.6
2018-03-28T07:19:45.880Z,1.5
2018-03-28T07:22:45.811Z,2.4
2018-03-28T07:25:45.745Z,4.1
2018-03-28T07:28:45.749Z,2.8
2018-03-28T07:31:45.791Z,4.8
2018-03-28T07:34:45.718Z,3.5
2018-03-28T07:37:45.752Z,2.8
2018-03-28T07:40:45.726Z,3.9
2018-03-28T07:43:45.815Z,7.2
2018-03-28T07:46:45.737Z,5.8
2018-03-28T07:49:45.760Z,7.3
2018-03-28T07:52:45.758Z,5.4
2018-03-28T07:55:45.938Z,4.3
2018-03-28T07:58:45.756Z,4
2018-03-28T08:01:45.757Z,2.8
2018-03-28T08:04:45.776Z,3.3
2018-03-28T08:07:45.732Z,5.5
2018-03-28T08:10:45.744Z,4.7
2018-03-28T08:13:45.734Z,2.5
2018-03-28T08:16:45.747Z,2.3
2018-03-28T08:19:45.783Z,4.4
2018-03-28T08:22:45.732Z,3.2
2018-03-28T08:25:46.353Z,2.6
2018-03-28T08:28:45.738Z,2.5
2018-03-28T08:31:45.720Z,2.1
2018-03-28T08:34:45.736Z,3.2
2018-03-28T08:37:45.722Z,5.5
2018-03-28T08:40:45.800Z,8.2
2018-03-28T08:43:45.707Z,5.9
2018-03-28T08:46:45.735Z,4.2
2018-03-28T08:49:46.523Z,4.5
2018-03-28T08:52:45.723Z,5.3
2018-03-28T08:55:45.725Z,7.3
2018-03-28T08:58:45.749Z,7.3
2018-03-28T09:01:45.769Z,3.5
2018-03-28T09:04:46.012Z,3.2
2018-03-28T09:07:45.728Z,4
2018-03-28T09:10:45.805Z,4.5
2018-03-28T09:13:45.896Z,4.4
2018-03-28T09:16:45.753Z,9.4
2018-03-28T09:19:45.703Z,4.7
2018-03-28T09:22:45.735Z,4.7
2018-03-28T09:25:45.720Z,4.5
2018-03-28T09:28:45.739Z,3.1
2018-03-28T09:31:45.811Z,3.9
2018-03-28T09:34:45.716Z,4.3
2018-03-28T09:37:45.731Z,7.1
2018-03-28T09:40:45.946Z,3
2018-03-28T09:43:45.708Z,3.1
2018-03-28T09:46:45.749Z,5.1
2018-03-28T09:49:45.702Z,2.8
2018-03-28T09:52:45.716Z,2.4
2018-03-28T09:55:45.813Z,4.2
2018-03-28T09:58:45.781Z,5.2
2018-03-28T10:01:45.732Z,3.9
2018-03-28T10:04:45.701Z,2.4
2018-03-28T10:07:45.745Z,2.8
2018-03-28T10:10:45.778Z,2.7
2018-03-28T10:13:45.713Z,4.1
2018-03-28T10:16:45.718Z,2
2018-03-28T10:19:45.795Z,4.3
2018-03-28T10:22:45.713Z,2.3
2018-03-28T10:25:45.711Z,5
2018-03-28T10:28:45.934Z,3.7
2018-03-28T10:31:45.755Z,2.7
2018-03-28T10:34:45.720Z,3.9
2018-03-28T10:37:45.716Z,3.7
2018-03-28T10:40:45.731Z,4.4
2018-03-28T10:43:45.714Z,2.3
2018-03-28T10:46:45.675Z,7
2018-03-28T10:49:45.688Z,4.4
2018-03-28T10:52:45.721Z,3.5
2018-03-28T10:55:45.696Z,4.5
2018-03-28T10:58:45.714Z,5.2
2018-03-28T11:01:45.744Z,3
2018-03-28T11:04:46.023Z,3.4
2018-03-28T11:07:45.904Z,3
2018-03-28T11:10:45.718Z,5.7
2018-03-28T11:13:45.695Z,8.5
2018-03-28T11:16:45.685Z,3.8
2018-03-28T11:19:45.980Z,4.4
2018-03-28T11:22:45.726Z,6.6
2018-03-28T11:25:45.739Z,5.8
2018-03-28T11:28:45.720Z,2.8
2018-03-28T11:31:45.770Z,3.7
2018-03-28T11:34:45.722Z,3.3
2018-03-28T11:37:45.678Z,4.6
2018-03-28T11:40:45.698Z,2.8
2018-03-28T11:43:45.698Z,3.2
2018-03-28T11:46:45.703Z,4.3
2018-03-28T11:49:45.738Z,4.1
2018-03-28T11:52:45.718Z,2.9
2018-03-28T11:55:45.668Z,2.2
2018-03-28T11:58:45.679Z,4.1
2018-03-28T12:01:45.696Z,5.3
2018-03-28T12:04:46.005Z,4.6
2018-03-28T12:07:45.666Z,4.6
2018-03-28T12:10:45.689Z,5.1
2018-03-28T12:13:45.700Z,4.7
2018-03-28T12:16:45.701Z,4.1
2018-03-28T12:19:45.749Z,7.1
2018-03-28T12:22:45.682Z,3.1
2018-03-28T12:25:45.669Z,4.8
2018-03-28T12:28:45.712Z,7
2018-03-28T12:31:45.721Z,3.7
2018-03-28T12:34:45.698Z,6.6
2018-03-28T12:37:45.642Z,5.5
2018-03-28T12:40:45.674Z,7
2018-03-28T12:43:45.657Z,6.6
2018-03-28T12:46:45.697Z,5.1
2018-03-28T12:49:46.796Z,3.4
2018-03-28T12:52:45.682Z,5.1
2018-03-28T12:55:45.697Z,5.5
2018-03-28T12:58:45.709Z,3.8
2018-03-28T13:01:45.639Z,2.8
2018-03-28T13:04:45.688Z,3.1
2018-03-28T13:07:45.953Z,3.8
2018-03-28T13:10:45.833Z,3.7
2018-03-28T13:13:45.653Z,4.7
2018-03-28T13:16:45.659Z,6.2
2018-03-28T13:19:45.708Z,5
2018-03-28T13:22:45.652Z,5.2
2018-03-28T13:25:45.650Z,4
2018-03-28T13:28:45.640Z,4.1
2018-03-28T13:31:45.656Z,8.7
2018-03-28T13:34:45.675Z,4.7
2018-03-28T13:37:45.673Z,1.6
2018-03-28T13:40:45.639Z,2.9
2018-03-28T13:43:45.696Z,3.8
2018-03-28T13:46:45.819Z,2.8
2018-03-28T13:49:45.624Z,1.9
2018-03-28T13:52:45.626Z,2.7
2018-03-28T13:55:45.666Z,4.2
2018-03-28T13:58:45.748Z,3.3
2018-03-28T14:01:45.824Z,3.4
2018-03-28T14:04:45.681Z,1.9
2018-03-28T14:07:45.672Z,3.7
2018-03-28T14:10:45.622Z,1.7
2018-03-28T14:13:45.627Z,2.5
2018-03-28T14:16:45.609Z,2.5
2018-03-28T14:19:45.618Z,3.3
2018-03-28T14:22:45.651Z,2.4
2018-03-28T14:25:45.661Z,1.4
2018-03-28T14:28:45.624Z,2.7
2018-03-28T14:31:45.600Z,3.8
2018-03-28T14:34:45.744Z,2.5
2018-03-28T14:37:45.610Z,3
2018-03-28T14:40:45.641Z,2.3
2018-03-28T14:43:45.637Z,2.8
2018-03-28T14:46:45.644Z,7.2
2018-03-28T14:49:45.631Z,2.3
2018-03-28T14:52:45.648Z,4.2
2018-03-28T14:55:45.625Z,5
2018-03-28T14:58:45.602Z,6.7
2018-03-28T15:01:45.609Z,2.7
2018-03-28T15:04:45.637Z,2.7
2018-03-28T15:07:45.660Z,3
2018-03-28T15:10:45.635Z,2.1
2018-03-28T15:13:45.610Z,2.5
2018-03-28T15:16:45.656Z,2.1
2018-03-28T15:19:45.622Z,2.4
2018-03-28T15:22:45.590Z,3
2018-03-28T15:25:45.633Z,5.6
2018-03-28T15:28:45.581Z,1.8
2018-03-28T15:31:45.659Z,2.5
2018-03-28T15:34:45.608Z,2.6
2018-03-28T15:37:45.653Z,2
2018-03-28T15:40:45.597Z,2.7
2018-03-28T15:43:45.592Z,2.2
2018-03-28T15:46:45.638Z,2.6
2018-03-28T15:49:45.599Z,1.5
2018-03-28T15:52:45.602Z,3
2018-03-28T15:55:45.596Z,1.6
2018-03-28T15:58:45.698Z,4.1
2018-03-28T16:01:45.615Z,4.2
2018-03-28T16:04:45.597Z,2
2018-03-28T16:07:45.617Z,3.1
2018-03-28T16:10:45.581Z,5.4
2018-03-28T16:13:45.566Z,5.1
2018-03-28T16:16:45.572Z,2.8
2018-03-28T16:19:45.623Z,2.5
2018-03-28T16:22:45.594Z,1.9
2018-03-28T16:25:45.584Z,2.4
2018-03-28T16:28:45.613Z,3.6
2018-03-28T16:31:45.629Z,3.7
2018-03-28T16:34:45.644Z,1.9
2018-03-28T16:37:45.577Z,2.5
2018-03-28T16:40:45.601Z,10.3
2018-03-28T16:43:45.605Z,2.2
2018-03-28T16:46:45.571Z,3.6
2018-03-28T16:49:45.588Z,7.1
2018-03-28T16:52:45.586Z,11
2018-03-28T16:55:45.578Z,8.5
2018-03-28T16:58:45.608Z,8.2
2018-03-28T17:01:46.122Z,8.1
2018-03-28T17:04:45.562Z,6.2
2018-03-28T17:07:46.324Z,7.9
2018-03-28T17:10:45.638Z,4.3
2018-03-28T17:13:45.568Z,6.8
2018-03-28T17:16:45.611Z,4.3
2018-03-28T17:19:45.569Z,4.3
2018-03-28T17:22:45.589Z,9.2
2018-03-28T17:25:45.859Z,4.5
2018-03-28T17:28:45.578Z,7.2
2018-03-28T17:31:45.582Z,6.3
2018-03-28T17:34:45.568Z,7.1
2018-03-28T17:37:45.574Z,8.2
2018-03-28T17:40:45.625Z,6.9
2018-03-28T17:43:45.740Z,5.1
2018-03-28T17:46:45.576Z,5.3
2018-03-28T17:49:45.555Z,8.8
2018-03-28T17:52:45.563Z,6.2
2018-03-28T17:55:45.576Z,4.9
2018-03-28T17:58:45.555Z,6.1
2018-03-28T18:01:45.858Z,3.5
2018-03-28T18:04:45.557Z,6.2
2018-03-28T18:07:45.550Z,5.2
2018-03-28T18:10:45.551Z,4.8
2018-03-28T18:13:45.536Z,6.2
2018-03-28T18:16:45.570Z,4.2
2018-03-28T18:19:45.571Z,11.1
2018-03-28T18:22:45.569Z,7.2
2018-03-28T18:25:45.614Z,6.4
2018-03-28T18:28:45.550Z,6
2018-03-28T18:31:45.538Z,8.5
2018-03-28T18:34:45.557Z,5.2
2018-03-28T18:37:45.542Z,2.9
2018-03-28T18:40:45.556Z,2.3
2018-03-28T18:43:45.737Z,5
2018-03-28T18:46:45.573Z,3.7
2018-03-28T18:49:45.548Z,4.6
2018-03-28T18:52:45.542Z,3.1
2018-03-28T18:55:45.528Z,2.6
2018-03-28T18:58:45.561Z,3.9
2018-03-28T19:01:46.042Z,4.6
2018-03-28T19:04:45.566Z,8.9
2018-03-28T19:07:45.574Z,6.2
2018-03-28T19:10:45.562Z,5
2018-03-28T19:13:45.601Z,4.8
2018-03-28T19:16:45.557Z,2.7
2018-03-28T19:19:45.580Z,5.7
2018-03-28T19:22:45.523Z,2.9
2018-03-28T19:25:45.600Z,3.4
2018-03-28T19:28:45.565Z,3.1
2018-03-28T19:31:45.589Z,2.2
2018-03-28T19:34:45.537Z,2.6
2018-03-28T19:37:45.530Z,3.3
2018-03-28T19:40:45.619Z,4.6
2018-03-28T19:43:45.523Z,2.7
2018-03-28T19:46:45.508Z,3.3
2018-03-28T19:49:45.525Z,3.5
2018-03-28T19:52:45.548Z,2.8
2018-03-28T19:55:45.534Z,2.9
2018-03-28T19:58:45.505Z,2.9
2018-03-28T20:01:45.618Z,2.2
2018-03-28T20:04:45.569Z,1.7
2018-03-28T20:07:45.521Z,2.9
2018-03-28T20:10:45.813Z,3
2018-03-28T20:13:45.520Z,2.6
2018-03-28T20:16:45.504Z,1.9
2018-03-28T20:19:45.572Z,2.9
2018-03-28T20:22:45.499Z,2.4
2018-03-28T20:25:45.546Z,1.8
2018-03-28T20:28:45.546Z,3.2
2018-03-28T20:31:45.490Z,3
2018-03-28T20:34:45.497Z,3.2
2018-03-28T20:37:45.513Z,1.8
2018-03-28T20:40:45.511Z,2.9
2018-03-28T20:43:45.564Z,1.9
2018-03-28T20:46:45.535Z,2.7
2018-03-28T20:49:45.495Z,1.7
2018-03-28T20:52:45.484Z,2.6
2018-03-28T20:55:45.527Z,2.1
2018-03-28T20:58:45.534Z,1.9
2018-03-28T21:01:45.516Z,2.2
2018-03-28T21:04:45.519Z,1.9
2018-03-28T21:07:45.504Z,2.1
2018-03-28T21:10:45.504Z,2.1
2018-03-28T21:13:45.494Z,2.9
2018-03-28T21:16:45.516Z,1.5
2018-03-28T21:19:45.533Z,2
2018-03-28T21:22:45.914Z,1.9
2018-03-28T21:25:45.489Z,2.1
2018-03-28T21:28:45.509Z,1.7
2018-03-28T21:31:45.492Z,2.3
2018-03-28T21:34:45.493Z,2.1
2018-03-28T21:37:45.523Z,2.1
2018-03-28T21:40:45.475Z,1.9
2018-03-28T21:43:45.518Z,1.3
2018-03-28T21:46:45.555Z,1.5
2018-03-28T21:49:45.740Z,1.3
2018-03-28T21:52:45.481Z,2.7
2018-03-28T21:55:45.519Z,1.6
2018-03-28T21:58:45.532Z,2.4
2018-03-28T22:01:45.633Z,2.3
2018-03-28T22:04:45.501Z,1.6
2018-03-28T22:07:45.474Z,1.2
2018-03-28T22:10:45.477Z,1.3
2018-03-28T22:13:45.540Z,1.2
2018-03-28T22:16:45.963Z,1.3
2018-03-28T22:19:45.472Z,1.4
2018-03-28T22:22:45.487Z,2.3
2018-03-28T22:25:45.516Z,1.3
2018-03-28T22:28:45.447Z,1.3
2018-03-28T22:31:45.469Z,1.2
2018-03-28T22:34:45.484Z,1.8
2018-03-28T22:37:45.470Z,1.3
2018-03-28T22:40:45.455Z,1.6
2018-03-28T22:43:45.488Z,1.3
2018-03-28T22:46:45.470Z,1.3
2018-03-28T22:49:45.489Z,1.2
2018-03-28T22:52:45.487Z,1.1
2018-03-28T22:55:45.466Z,1.2
2018-03-28T22:58:45.460Z,1
2018-03-28T23:01:45.468Z,1.2
2018-03-28T23:04:45.540Z,1.2
2018-03-28T23:07:45.501Z,1.3
2018-03-28T23:10:45.498Z,2
2018-03-28T23:13:45.451Z,1.2
2018-03-28T23:16:45.520Z,1.4
2018-03-28T23:19:45.546Z,1.2
2018-03-28T23:22:45.450Z,1.5
2018-03-28T23:25:45.459Z,1.3
2018-03-28T23:28:45.451Z,1.2
2018-03-28T23:31:45.461Z,1.3
2018-03-28T23:34:45.504Z,1.3
2018-03-28T23:37:45.491Z,1.3
2018-03-28T23:40:45.453Z,1.3
2018-03-28T23:43:45.478Z,1.1
2018-03-28T23:46:45.448Z,1.3
2018-03-28T23:49:45.446Z,1
2018-03-28T23:52:45.469Z,1
2018-03-28T23:55:45.444Z,1
2018-03-28T23:58:45.489Z,1.3
